Magnus Heinason — OW2252 — position and weather

sailwx.info

Track history (hours):
 
Tides and Currents Weather Stations Pressure Air Temp Water Temp Dewpoint Dewpoint Depression Visibility Wind Speed Wind Dir Waves Ship Positions

Oceanographic research ship Magnus Heinason (Faroe Islands)

Detailed information on ship capabilities available from ARCUS's ALIAS (Arctic Logistics Information and Support) project.

Last reported at 2017-Feb-19 05:21 UTC. Time now 2017-Feb-22 01:40 UTC.
Position N 61°34' W 007°28'.

Length 44 m; draft 4 m.

Type: . MMSI: 231041000.

Date/timePositionNaut miles runAvg speedWind from/ knotsBaromVisibWave heightAir tempDewpointWater temp
2017-Feb-19 05:21N 61°34' W 007°28'5 5.6
2017-Feb-19 04:27N 61°38' W 007°21'4 4.7
2017-Feb-19 03:32N 61°41' W 007°15'6 6.1
2017-Feb-19 02:32N 61°46' W 007°07'6 5.7
2017-Feb-19 01:33N 61°50' W 006°60'6 5.9
2017-Feb-19 00:33N 61°56' W 006°59'4 4.3
2017-Feb-18 23:32N 61°60' W 007°04'5 5.2
2017-Feb-18 22:31N 61°57' W 007°13'5 5.3
2017-Feb-18 21:31N 61°54' W 007°22'8 6.6
2017-Feb-18 20:20N 61°49' W 007°36'22 0.8
2017-Feb-17 16:16N 62°11' W 007°52'6 7.3
2017-Feb-17 15:31N 62°16' W 007°56'13 6.3
2017-Feb-17 13:30N 62°27' W 008°07'  
2017-Feb-13 08:32N 62°00' W 006°46'  
Track history (hours):
 
Tides and Currents Weather Stations Pressure Air Temp Water Temp Dewpoint Dewpoint Depression Visibility Wind Speed Wind Dir Waves Ship Positions

Oceanographic research ship Magnus Heinason (Faroe Islands)

Detailed information on ship capabilities available from ARCUS's ALIAS (Arctic Logistics Information and Support) project.

Last reported at 2017-Feb-19 05:21 UTC. Time now 2017-Feb-22 01:40 UTC.
Position N 61°34' W 007°28'.

Length 44 m; draft 4 m.

Type: . MMSI: 231041000.

Date/timePositionNaut miles runAvg speedWind from/ knotsBaromVisibWave heightAir tempDewpointWater temp
2017-Feb-19 05:21N 61°34' W 007°28'5 5.6
2017-Feb-19 04:27N 61°38' W 007°21'4 4.7
2017-Feb-19 03:32N 61°41' W 007°15'6 6.1
2017-Feb-19 02:32N 61°46' W 007°07'6 5.7
2017-Feb-19 01:33N 61°50' W 006°60'6 5.9
2017-Feb-19 00:33N 61°56' W 006°59'4 4.3
2017-Feb-18 23:32N 61°60' W 007°04'5 5.2
2017-Feb-18 22:31N 61°57' W 007°13'5 5.3
2017-Feb-18 21:31N 61°54' W 007°22'8 6.6
2017-Feb-18 20:20N 61°49' W 007°36'22 0.8
2017-Feb-17 16:16N 62°11' W 007°52'6 7.3
2017-Feb-17 15:31N 62°16' W 007°56'13 6.3
2017-Feb-17 13:30N 62°27' W 008°07'  
2017-Feb-13 08:32N 62°00' W 006°46'  

Dump ship's entire track history